sensor_id;sensor_type;location;lat;lon;timestamp;temperature;humidity
72865;DHT22;61000;48.120;11.548;2023-05-14T00:01:19;11.40;99.90
72865;DHT22;61000;48.120;11.548;2023-05-14T00:03:46;11.40;99.90
72865;DHT22;61000;48.120;11.548;2023-05-14T00:06:13;11.40;99.90
72865;DHT22;61000;48.120;11.548;2023-05-14T00:08:40;11.40;99.90
72865;DHT22;61000;48.120;11.548;2023-05-14T00:11:07;11.30;99.90
72865;DHT22;61000;48.120;11.548;2023-05-14T00:13:34;11.30;99.90
72865;DHT22;61000;48.120;11.548;2023-05-14T00:16:03;11.30;99.90
72865;DHT22;61000;48.120;11.548;2023-05-14T00:18:30;11.30;99.90
72865;DHT22;61000;48.120;11.548;2023-05-14T00:20:57;11.20;99.90
72865;DHT22;61000;48.120;11.548;2023-05-14T00:23:24;11.20;99.90
72865;DHT22;61000;48.120;11.548;2023-05-14T00:25:51;11.20;99.90
72865;DHT22;61000;48.120;11.548;2023-05-14T00:28:18;11.20;99.90
72865;DHT22;61000;48.120;11.548;2023-05-14T00:30:45;11.30;99.90
72865;DHT22;61000;48.120;11.548;2023-05-14T00:33:13;11.20;99.90
72865;DHT22;61000;48.120;11.548;2023-05-14T00:35:40;11.10;99.90
72865;DHT22;61000;48.120;11.548;2023-05-14T00:38:07;11.10;99.90
72865;DHT22;61000;48.120;11.548;2023-05-14T00:40:34;11.10;99.90
72865;DHT22;61000;48.120;11.548;2023-05-14T00:43:01;11.10;99.90
72865;DHT22;61000;48.120;11.548;2023-05-14T00:45:28;11.10;99.90
72865;DHT22;61000;48.120;11.548;2023-05-14T00:47:55;11.10;99.90
72865;DHT22;61000;48.120;11.548;2023-05-14T00:50:24;11.20;99.90
72865;DHT22;61000;48.120;11.548;2023-05-14T00:52:51;11.20;99.90
72865;DHT22;61000;48.120;11.548;2023-05-14T00:55:18;11.10;99.90
72865;DHT22;61000;48.120;11.548;2023-05-14T00:57:45;11.10;99.90
72865;DHT22;61000;48.120;11.548;2023-05-14T01:00:13;11.10;99.90
72865;DHT22;61000;48.120;11.548;2023-05-14T01:02:40;11.10;99.90
72865;DHT22;61000;48.120;11.548;2023-05-14T01:05:08;11.10;99.90
72865;DHT22;61000;48.120;11.548;2023-05-14T01:07:44;11.10;99.90
72865;DHT22;61000;48.120;11.548;2023-05-14T01:10:26;11.10;99.90
72865;DHT22;61000;48.120;11.548;2023-05-14T01:13:01;11.00;99.90
72865;DHT22;61000;48.120;11.548;2023-05-14T01:15:30;11.00;99.90
72865;DHT22;61000;48.120;11.548;2023-05-14T01:18:02;11.00;99.90
72865;DHT22;61000;48.120;11.548;2023-05-14T01:20:30;11.00;99.90
72865;DHT22;61000;48.120;11.548;2023-05-14T01:22:58;11.00;99.90
72865;DHT22;61000;48.120;11.548;2023-05-14T01:25:25;11.00;99.90
72865;DHT22;61000;48.120;11.548;2023-05-14T01:27:58;11.00;99.90
72865;DHT22;61000;48.120;11.548;2023-05-14T01:30:29;11.00;99.90
72865;DHT22;61000;48.120;11.548;2023-05-14T01:32:58;11.00;99.90
72865;DHT22;61000;48.120;11.548;2023-05-14T01:35:28;11.00;99.90
72865;DHT22;61000;48.120;11.548;2023-05-14T01:37:58;11.00;99.90
72865;DHT22;61000;48.120;11.548;2023-05-14T01:40:26;11.00;99.90
72865;DHT22;61000;48.120;11.548;2023-05-14T01:42:54;11.00;99.90
72865;DHT22;61000;48.120;11.548;2023-05-14T01:45:21;11.00;99.90
72865;DHT22;61000;48.120;11.548;2023-05-14T01:47:48;10.90;99.90
72865;DHT22;61000;48.120;11.548;2023-05-14T01:50:15;10.90;99.90
72865;DHT22;61000;48.120;11.548;2023-05-14T01:52:42;10.90;99.90
72865;DHT22;61000;48.120;11.548;2023-05-14T01:55:10;10.90;99.90
72865;DHT22;61000;48.120;11.548;2023-05-14T01:57:37;10.80;99.90
72865;DHT22;61000;48.120;11.548;2023-05-14T02:00:05;10.80;99.90
72865;DHT22;61000;48.120;11.548;2023-05-14T02:02:39;10.80;99.90
72865;DHT22;61000;48.120;11.548;2023-05-14T02:05:09;10.70;99.90
72865;DHT22;61000;48.120;11.548;2023-05-14T02:07:36;10.70;99.90
72865;DHT22;61000;48.120;11.548;2023-05-14T02:10:03;10.70;99.90
72865;DHT22;61000;48.120;11.548;2023-05-14T02:12:32;10.60;99.90
72865;DHT22;61000;48.120;11.548;2023-05-14T02:14:58;10.50;99.90
72865;DHT22;61000;48.120;11.548;2023-05-14T02:17:26;10.50;99.90
72865;DHT22;61000;48.120;11.548;2023-05-14T02:19:53;10.50;99.90
72865;DHT22;61000;48.120;11.548;2023-05-14T02:22:20;10.40;99.90
72865;DHT22;61000;48.120;11.548;2023-05-14T02:24:47;10.40;99.90
72865;DHT22;61000;48.120;11.548;2023-05-14T02:27:17;10.40;99.90
72865;DHT22;61000;48.120;11.548;2023-05-14T02:29:45;10.40;99.90
72865;DHT22;61000;48.120;11.548;2023-05-14T02:32:13;10.50;99.90
72865;DHT22;61000;48.120;11.548;2023-05-14T02:34:39;10.40;99.90
72865;DHT22;61000;48.120;11.548;2023-05-14T02:37:06;10.40;99.90
72865;DHT22;61000;48.120;11.548;2023-05-14T02:39:33;10.40;99.90
72865;DHT22;61000;48.120;11.548;2023-05-14T02:42:00;10.30;99.90
72865;DHT22;61000;48.120;11.548;2023-05-14T02:44:27;10.40;99.90
72865;DHT22;61000;48.120;11.548;2023-05-14T02:46:57;10.30;99.90
72865;DHT22;61000;48.120;11.548;2023-05-14T02:49:24;10.30;99.90
72865;DHT22;61000;48.120;11.548;2023-05-14T02:51:52;10.30;99.90
72865;DHT22;61000;48.120;11.548;2023-05-14T02:54:19;10.30;99.90
72865;DHT22;61000;48.120;11.548;2023-05-14T02:56:46;10.30;99.90
72865;DHT22;61000;48.120;11.548;2023-05-14T02:59:13;10.30;99.90
72865;DHT22;61000;48.120;11.548;2023-05-14T03:01:40;10.30;99.90
72865;DHT22;61000;48.120;11.548;2023-05-14T03:04:08;10.40;99.90
72865;DHT22;61000;48.120;11.548;2023-05-14T03:06:35;10.40;99.90
72865;DHT22;61000;48.120;11.548;2023-05-14T03:09:02;10.40;99.90
72865;DHT22;61000;48.120;11.548;2023-05-14T03:11:29;10.30;99.90
72865;DHT22;61000;48.120;11.548;2023-05-14T03:13:56;10.40;99.90
72865;DHT22;61000;48.120;11.548;2023-05-14T03:16:23;10.40;99.90
72865;DHT22;61000;48.120;11.548;2023-05-14T03:18:49;10.30;99.90
72865;DHT22;61000;48.120;11.548;2023-05-14T03:21:18;10.30;99.90
72865;DHT22;61000;48.120;11.548;2023-05-14T03:23:45;10.20;99.90
72865;DHT22;61000;48.120;11.548;2023-05-14T03:26:12;10.20;99.90
72865;DHT22;61000;48.120;11.548;2023-05-14T03:28:39;10.30;99.90
72865;DHT22;61000;48.120;11.548;2023-05-14T03:31:06;10.30;99.90
72865;DHT22;61000;48.120;11.548;2023-05-14T03:33:33;10.20;99.90
72865;DHT22;61000;48.120;11.548;2023-05-14T03:36:00;10.10;99.90
72865;DHT22;61000;48.120;11.548;2023-05-14T03:38:28;10.20;99.90
72865;DHT22;61000;48.120;11.548;2023-05-14T03:40:56;10.10;99.90
72865;DHT22;61000;48.120;11.548;2023-05-14T03:43:23;10.10;99.90
72865;DHT22;61000;48.120;11.548;2023-05-14T03:45:50;10.10;99.90
72865;DHT22;61000;48.120;11.548;2023-05-14T03:48:18;10.10;99.90
72865;DHT22;61000;48.120;11.548;2023-05-14T03:50:45;10.10;99.90
72865;DHT22;61000;48.120;11.548;2023-05-14T03:53:12;10.10;99.90
72865;DHT22;61000;48.120;11.548;2023-05-14T03:55:40;9.70;99.90
72865;DHT22;61000;48.120;11.548;2023-05-14T03:58:10;10.10;99.90
72865;DHT22;61000;48.120;11.548;2023-05-14T04:00:39;10.10;99.90
72865;DHT22;61000;48.120;11.548;2023-05-14T04:03:06;10.10;99.90
72865;DHT22;61000;48.120;11.548;2023-05-14T04:05:33;10.10;99.90
72865;DHT22;61000;48.120;11.548;2023-05-14T04:08:00;10.10;99.90
72865;DHT22;61000;48.120;11.548;2023-05-14T04:10:27;10.10;99.90
72865;DHT22;61000;48.120;11.548;2023-05-14T04:12:56;10.10;99.90
72865;DHT22;61000;48.120;11.548;2023-05-14T04:15:27;10.10;99.90
72865;DHT22;61000;48.120;11.548;2023-05-14T04:17:54;10.10;99.90
72865;DHT22;61000;48.120;11.548;2023-05-14T04:20:21;10.20;99.90
72865;DHT22;61000;48.120;11.548;2023-05-14T04:22:49;10.10;99.90
72865;DHT22;61000;48.120;11.548;2023-05-14T04:25:16;10.10;99.90
72865;DHT22;61000;48.120;11.548;2023-05-14T04:27:43;10.10;99.90
72865;DHT22;61000;48.120;11.548;2023-05-14T04:30:12;10.10;99.90
72865;DHT22;61000;48.120;11.548;2023-05-14T04:32:39;10.10;99.90
72865;DHT22;61000;48.120;11.548;2023-05-14T04:35:07;10.10;99.90
72865;DHT22;61000;48.120;11.548;2023-05-14T04:37:34;10.10;99.90
72865;DHT22;61000;48.120;11.548;2023-05-14T04:40:01;10.10;99.90
72865;DHT22;61000;48.120;11.548;2023-05-14T04:42:28;10.10;99.90
72865;DHT22;61000;48.120;11.548;2023-05-14T04:44:58;10.10;99.90
72865;DHT22;61000;48.120;11.548;2023-05-14T04:47:26;10.10;99.90
72865;DHT22;61000;48.120;11.548;2023-05-14T04:49:53;10.10;99.90
72865;DHT22;61000;48.120;11.548;2023-05-14T04:52:21;10.10;99.90
72865;DHT22;61000;48.120;11.548;2023-05-14T04:54:48;10.10;99.90
72865;DHT22;61000;48.120;11.548;2023-05-14T04:57:15;10.00;99.90
72865;DHT22;61000;48.120;11.548;2023-05-14T04:59:42;10.00;99.90
72865;DHT22;61000;48.120;11.548;2023-05-14T05:02:08;10.00;99.90
72865;DHT22;61000;48.120;11.548;2023-05-14T05:04:37;10.00;99.90
72865;DHT22;61000;48.120;11.548;2023-05-14T05:07:04;10.00;99.90
72865;DHT22;61000;48.120;11.548;2023-05-14T05:09:31;10.00;99.90
72865;DHT22;61000;48.120;11.548;2023-05-14T05:11:58;10.10;99.90
72865;DHT22;61000;48.120;11.548;2023-05-14T05:14:26;10.10;99.90
72865;DHT22;61000;48.120;11.548;2023-05-14T05:16:52;10.00;99.90
72865;DHT22;61000;48.120;11.548;2023-05-14T05:19:19;10.00;99.90
72865;DHT22;61000;48.120;11.548;2023-05-14T05:21:48;10.10;99.90
72865;DHT22;61000;48.120;11.548;2023-05-14T05:24:15;10.00;99.90
72865;DHT22;61000;48.120;11.548;2023-05-14T05:26:42;10.00;99.90
72865;DHT22;61000;48.120;11.548;2023-05-14T05:29:09;10.00;99.90
72865;DHT22;61000;48.120;11.548;2023-05-14T05:31:36;10.00;99.90
72865;DHT22;61000;48.120;11.548;2023-05-14T05:34:03;10.00;99.90
72865;DHT22;61000;48.120;11.548;2023-05-14T05:36:30;10.00;99.90
72865;DHT22;61000;48.120;11.548;2023-05-14T05:38:58;10.10;99.90
72865;DHT22;61000;48.120;11.548;2023-05-14T05:41:25;10.10;99.90
72865;DHT22;61000;48.120;11.548;2023-05-14T05:43:52;10.20;99.90
72865;DHT22;61000;48.120;11.548;2023-05-14T05:46:19;10.10;99.90
72865;DHT22;61000;48.120;11.548;2023-05-14T05:48:46;10.10;99.90
72865;DHT22;61000;48.120;11.548;2023-05-14T05:51:13;10.10;99.90
72865;DHT22;61000;48.120;11.548;2023-05-14T05:53:40;10.00;99.90
72865;DHT22;61000;48.120;11.548;2023-05-14T05:56:08;10.00;99.90
72865;DHT22;61000;48.120;11.548;2023-05-14T05:58:35;10.00;99.90
72865;DHT22;61000;48.120;11.548;2023-05-14T06:01:02;10.00;99.90
72865;DHT22;61000;48.120;11.548;2023-05-14T06:03:29;10.10;99.90
72865;DHT22;61000;48.120;11.548;2023-05-14T06:05:55;10.10;99.90
72865;DHT22;61000;48.120;11.548;2023-05-14T06:08:22;10.20;99.90
72865;DHT22;61000;48.120;11.548;2023-05-14T06:10:49;10.20;99.90
72865;DHT22;61000;48.120;11.548;2023-05-14T06:13:17;10.30;99.90
72865;DHT22;61000;48.120;11.548;2023-05-14T06:15:44;10.20;99.90
72865;DHT22;61000;48.120;11.548;2023-05-14T06:18:11;10.20;99.90
72865;DHT22;61000;48.120;11.548;2023-05-14T06:20:38;10.20;99.90
72865;DHT22;61000;48.120;11.548;2023-05-14T06:23:09;10.20;99.90
72865;DHT22;61000;48.120;11.548;2023-05-14T06:25:36;10.10;99.90
72865;DHT22;61000;48.120;11.548;2023-05-14T06:28:04;10.10;99.90
72865;DHT22;61000;48.120;11.548;2023-05-14T06:30:32;10.50;99.90
72865;DHT22;61000;48.120;11.548;2023-05-14T06:32:59;10.70;99.90
72865;DHT22;61000;48.120;11.548;2023-05-14T06:35:26;10.70;99.90
72865;DHT22;61000;48.120;11.548;2023-05-14T06:37:53;10.80;99.90
72865;DHT22;61000;48.120;11.548;2023-05-14T06:40:20;10.90;99.90
72865;DHT22;61000;48.120;11.548;2023-05-14T06:42:47;10.80;99.90
72865;DHT22;61000;48.120;11.548;2023-05-14T06:45:14;10.80;99.90
72865;DHT22;61000;48.120;11.548;2023-05-14T06:47:42;10.80;99.90
72865;DHT22;61000;48.120;11.548;2023-05-14T06:50:10;10.80;99.90
72865;DHT22;61000;48.120;11.548;2023-05-14T06:52:37;10.70;99.90
72865;DHT22;61000;48.120;11.548;2023-05-14T06:55:05;10.70;99.90
72865;DHT22;61000;48.120;11.548;2023-05-14T06:57:32;10.70;99.90
72865;DHT22;61000;48.120;11.548;2023-05-14T06:59:59;10.70;99.90
72865;DHT22;61000;48.120;11.548;2023-05-14T07:02:26;10.80;99.90
72865;DHT22;61000;48.120;11.548;2023-05-14T07:04:54;10.70;99.90
72865;DHT22;61000;48.120;11.548;2023-05-14T07:07:21;10.70;99.90
72865;DHT22;61000;48.120;11.548;2023-05-14T07:09:48;10.80;99.90
72865;DHT22;61000;48.120;11.548;2023-05-14T07:12:15;10.80;99.90
72865;DHT22;61000;48.120;11.548;2023-05-14T07:14:42;11.00;99.90
72865;DHT22;61000;48.120;11.548;2023-05-14T07:17:09;11.10;99.90
72865;DHT22;61000;48.120;11.548;2023-05-14T07:19:36;11.20;99.90
72865;DHT22;61000;48.120;11.548;2023-05-14T07:22:04;11.20;99.90
72865;DHT22;61000;48.120;11.548;2023-05-14T07:24:31;11.20;99.90
72865;DHT22;61000;48.120;11.548;2023-05-14T07:26:58;11.10;99.90
72865;DHT22;61000;48.120;11.548;2023-05-14T07:29:26;11.20;99.90
72865;DHT22;61000;48.120;11.548;2023-05-14T07:31:54;11.30;99.90
72865;DHT22;61000;48.120;11.548;2023-05-14T07:34:21;11.20;99.90
72865;DHT22;61000;48.120;11.548;2023-05-14T07:36:48;11.30;99.90
72865;DHT22;61000;48.120;11.548;2023-05-14T07:39:16;11.30;99.90
72865;DHT22;61000;48.120;11.548;2023-05-14T07:41:43;11.30;99.90
72865;DHT22;61000;48.120;11.548;2023-05-14T07:44:10;11.00;99.90
72865;DHT22;61000;48.120;11.548;2023-05-14T07:46:37;11.30;99.90
72865;DHT22;61000;48.120;11.548;2023-05-14T07:49:04;11.20;99.90
72865;DHT22;61000;48.120;11.548;2023-05-14T07:51:31;11.10;99.90
72865;DHT22;61000;48.120;11.548;2023-05-14T07:53:58;11.10;99.90
72865;DHT22;61000;48.120;11.548;2023-05-14T07:56:26;11.20;99.90
72865;DHT22;61000;48.120;11.548;2023-05-14T07:58:53;11.20;99.90
72865;DHT22;61000;48.120;11.548;2023-05-14T08:01:27;11.30;99.90
72865;DHT22;61000;48.120;11.548;2023-05-14T08:04:08;11.40;99.90
72865;DHT22;61000;48.120;11.548;2023-05-14T08:06:36;11.40;99.90
72865;DHT22;61000;48.120;11.548;2023-05-14T08:09:03;11.40;99.90
72865;DHT22;61000;48.120;11.548;2023-05-14T08:11:31;11.40;99.90
72865;DHT22;61000;48.120;11.548;2023-05-14T08:13:58;11.40;99.90
72865;DHT22;61000;48.120;11.548;2023-05-14T08:16:25;11.40;99.90
72865;DHT22;61000;48.120;11.548;2023-05-14T08:18:52;11.40;99.90
72865;DHT22;61000;48.120;11.548;2023-05-14T08:21:19;11.40;99.90
72865;DHT22;61000;48.120;11.548;2023-05-14T08:23:46;11.50;99.90
72865;DHT22;61000;48.120;11.548;2023-05-14T08:26:13;11.40;99.90
72865;DHT22;61000;48.120;11.548;2023-05-14T08:28:42;11.50;99.90
72865;DHT22;61000;48.120;11.548;2023-05-14T08:31:09;11.50;99.90
72865;DHT22;61000;48.120;11.548;2023-05-14T08:33:35;11.40;99.90
72865;DHT22;61000;48.120;11.548;2023-05-14T08:36:03;11.40;99.90
72865;DHT22;61000;48.120;11.548;2023-05-14T08:38:30;11.30;99.90
72865;DHT22;61000;48.120;11.548;2023-05-14T08:40:57;11.30;99.90
72865;DHT22;61000;48.120;11.548;2023-05-14T08:43:26;11.30;99.90
72865;DHT22;61000;48.120;11.548;2023-05-14T08:45:57;11.30;99.90
72865;DHT22;61000;48.120;11.548;2023-05-14T08:48:30;11.30;99.90
72865;DHT22;61000;48.120;11.548;2023-05-14T08:50:58;11.40;99.90
72865;DHT22;61000;48.120;11.548;2023-05-14T08:53:25;11.40;99.90
72865;DHT22;61000;48.120;11.548;2023-05-14T08:55:53;11.30;99.90
72865;DHT22;61000;48.120;11.548;2023-05-14T08:58:20;11.30;99.90
72865;DHT22;61000;48.120;11.548;2023-05-14T09:00:47;11.20;99.90
72865;DHT22;61000;48.120;11.548;2023-05-14T09:03:16;11.30;99.90
72865;DHT22;61000;48.120;11.548;2023-05-14T09:05:43;11.60;99.90
72865;DHT22;61000;48.120;11.548;2023-05-14T09:08:11;11.30;99.90
72865;DHT22;61000;48.120;11.548;2023-05-14T09:10:38;11.20;99.90
72865;DHT22;61000;48.120;11.548;2023-05-14T09:13:05;11.20;99.90
72865;DHT22;61000;48.120;11.548;2023-05-14T09:15:36;11.10;99.90
72865;DHT22;61000;48.120;11.548;2023-05-14T09:18:04;11.20;99.90
72865;DHT22;61000;48.120;11.548;2023-05-14T09:20:32;11.20;99.90
72865;DHT22;61000;48.120;11.548;2023-05-14T09:23:00;11.30;99.90
72865;DHT22;61000;48.120;11.548;2023-05-14T09:25:30;11.20;99.90
72865;DHT22;61000;48.120;11.548;2023-05-14T09:27:58;11.10;99.90
72865;DHT22;61000;48.120;11.548;2023-05-14T09:30:25;11.10;99.90
72865;DHT22;61000;48.120;11.548;2023-05-14T09:32:53;11.10;99.90
72865;DHT22;61000;48.120;11.548;2023-05-14T09:35:21;11.20;99.90
72865;DHT22;61000;48.120;11.548;2023-05-14T09:37:51;11.30;99.90
72865;DHT22;61000;48.120;11.548;2023-05-14T09:40:19;11.30;99.90
72865;DHT22;61000;48.120;11.548;2023-05-14T09:42:46;11.40;99.90
72865;DHT22;61000;48.120;11.548;2023-05-14T09:45:14;11.60;99.90
72865;DHT22;61000;48.120;11.548;2023-05-14T09:47:41;11.70;99.90
72865;DHT22;61000;48.120;11.548;2023-05-14T09:50:09;11.70;99.90
72865;DHT22;61000;48.120;11.548;2023-05-14T09:52:38;11.70;99.90
72865;DHT22;61000;48.120;11.548;2023-05-14T09:55:07;11.90;99.90
72865;DHT22;61000;48.120;11.548;2023-05-14T09:57:34;11.80;99.90
72865;DHT22;61000;48.120;11.548;2023-05-14T10:00:02;11.80;99.90
72865;DHT22;61000;48.120;11.548;2023-05-14T10:02:34;11.80;99.90
72865;DHT22;61000;48.120;11.548;2023-05-14T10:05:04;11.80;99.90
72865;DHT22;61000;48.120;11.548;2023-05-14T10:07:35;11.70;99.90
72865;DHT22;61000;48.120;11.548;2023-05-14T10:10:09;11.80;99.90
72865;DHT22;61000;48.120;11.548;2023-05-14T10:12:39;11.80;99.90
72865;DHT22;61000;48.120;11.548;2023-05-14T10:15:13;11.80;99.90
72865;DHT22;61000;48.120;11.548;2023-05-14T10:17:44;12.00;99.90
72865;DHT22;61000;48.120;11.548;2023-05-14T10:20:14;11.90;99.90
72865;DHT22;61000;48.120;11.548;2023-05-14T10:22:42;12.00;99.90
72865;DHT22;61000;48.120;11.548;2023-05-14T10:25:10;12.10;99.90
72865;DHT22;61000;48.120;11.548;2023-05-14T10:27:38;12.10;99.90
72865;DHT22;61000;48.120;11.548;2023-05-14T10:30:09;12.10;99.90
72865;DHT22;61000;48.120;11.548;2023-05-14T10:32:37;12.10;99.90
72865;DHT22;61000;48.120;11.548;2023-05-14T10:35:15;12.20;99.90
72865;DHT22;61000;48.120;11.548;2023-05-14T10:37:43;12.30;99.90
72865;DHT22;61000;48.120;11.548;2023-05-14T10:40:12;12.40;99.90
72865;DHT22;61000;48.120;11.548;2023-05-14T10:42:40;12.40;99.90
72865;DHT22;61000;48.120;11.548;2023-05-14T10:45:09;12.20;99.90
72865;DHT22;61000;48.120;11.548;2023-05-14T10:47:38;12.00;99.90
72865;DHT22;61000;48.120;11.548;2023-05-14T10:50:07;12.00;99.90
72865;DHT22;61000;48.120;11.548;2023-05-14T10:52:35;11.90;99.90
72865;DHT22;61000;48.120;11.548;2023-05-14T10:55:03;11.90;99.90
72865;DHT22;61000;48.120;11.548;2023-05-14T10:57:35;12.00;99.90
72865;DHT22;61000;48.120;11.548;2023-05-14T11:00:03;12.10;99.90
72865;DHT22;61000;48.120;11.548;2023-05-14T11:02:34;12.10;99.90
72865;DHT22;61000;48.120;11.548;2023-05-14T11:05:04;12.00;99.90
72865;DHT22;61000;48.120;11.548;2023-05-14T11:07:33;12.10;99.90
72865;DHT22;61000;48.120;11.548;2023-05-14T11:10:02;12.10;99.90
72865;DHT22;61000;48.120;11.548;2023-05-14T11:12:30;12.00;99.90
72865;DHT22;61000;48.120;11.548;2023-05-14T11:14:59;12.20;99.90
72865;DHT22;61000;48.120;11.548;2023-05-14T11:17:28;12.10;99.90
72865;DHT22;61000;48.120;11.548;2023-05-14T11:19:56;12.10;99.90
72865;DHT22;61000;48.120;11.548;2023-05-14T11:22:23;12.10;99.90
72865;DHT22;61000;48.120;11.548;2023-05-14T11:24:50;12.10;99.90
72865;DHT22;61000;48.120;11.548;2023-05-14T11:27:18;12.00;99.90
72865;DHT22;61000;48.120;11.548;2023-05-14T11:29:46;12.10;99.90
72865;DHT22;61000;48.120;11.548;2023-05-14T11:32:16;12.10;99.90
72865;DHT22;61000;48.120;11.548;2023-05-14T11:34:45;12.10;99.90
72865;DHT22;61000;48.120;11.548;2023-05-14T11:37:14;12.00;99.90
72865;DHT22;61000;48.120;11.548;2023-05-14T11:39:54;12.10;99.90
72865;DHT22;61000;48.120;11.548;2023-05-14T11:42:21;12.10;99.90
72865;DHT22;61000;48.120;11.548;2023-05-14T11:44:52;12.10;99.90
72865;DHT22;61000;48.120;11.548;2023-05-14T11:47:21;12.20;99.90
72865;DHT22;61000;48.120;11.548;2023-05-14T11:49:48;12.30;99.90
72865;DHT22;61000;48.120;11.548;2023-05-14T11:52:16;12.20;99.90
72865;DHT22;61000;48.120;11.548;2023-05-14T11:54:46;12.40;99.90
72865;DHT22;61000;48.120;11.548;2023-05-14T11:57:17;12.50;99.90
72865;DHT22;61000;48.120;11.548;2023-05-14T11:59:44;12.60;99.90
72865;DHT22;61000;48.120;11.548;2023-05-14T12:02:13;13.00;99.90
72865;DHT22;61000;48.120;11.548;2023-05-14T12:04:42;13.00;99.90
72865;DHT22;61000;48.120;11.548;2023-05-14T12:07:10;13.30;99.90
72865;DHT22;61000;48.120;11.548;2023-05-14T12:09:39;13.40;99.90
72865;DHT22;61000;48.120;11.548;2023-05-14T12:12:10;13.50;99.90
72865;DHT22;61000;48.120;11.548;2023-05-14T12:14:39;13.60;99.90
72865;DHT22;61000;48.120;11.548;2023-05-14T12:17:17;13.40;99.90
72865;DHT22;61000;48.120;11.548;2023-05-14T12:19:52;13.50;99.90
72865;DHT22;61000;48.120;11.548;2023-05-14T12:22:21;13.60;99.90
72865;DHT22;61000;48.120;11.548;2023-05-14T12:24:52;13.80;99.90
72865;DHT22;61000;48.120;11.548;2023-05-14T12:27:20;13.70;99.90
72865;DHT22;61000;48.120;11.548;2023-05-14T12:29:47;13.90;99.90
72865;DHT22;61000;48.120;11.548;2023-05-14T12:32:18;13.90;99.90
72865;DHT22;61000;48.120;11.548;2023-05-14T12:34:46;14.00;99.90
72865;DHT22;61000;48.120;11.548;2023-05-14T12:37:13;14.00;99.90
72865;DHT22;61000;48.120;11.548;2023-05-14T12:39:40;14.00;99.90
72865;DHT22;61000;48.120;11.548;2023-05-14T12:42:07;14.00;99.90
72865;DHT22;61000;48.120;11.548;2023-05-14T12:44:34;14.20;99.90
72865;DHT22;61000;48.120;11.548;2023-05-14T12:47:01;14.40;99.90
72865;DHT22;61000;48.120;11.548;2023-05-14T12:49:28;14.40;99.90
72865;DHT22;61000;48.120;11.548;2023-05-14T12:51:56;14.50;99.90
72865;DHT22;61000;48.120;11.548;2023-05-14T12:54:23;14.60;99.90
72865;DHT22;61000;48.120;11.548;2023-05-14T12:56:50;15.00;99.90
72865;DHT22;61000;48.120;11.548;2023-05-14T13:01:44;15.40;99.90
72865;DHT22;61000;48.120;11.548;2023-05-14T13:04:11;15.70;99.90
72865;DHT22;61000;48.120;11.548;2023-05-14T13:06:38;16.10;99.90
72865;DHT22;61000;48.120;11.548;2023-05-14T13:09:07;16.30;99.90
72865;DHT22;61000;48.120;11.548;2023-05-14T13:11:36;16.10;99.90
72865;DHT22;61000;48.120;11.548;2023-05-14T13:14:03;15.80;99.90
72865;DHT22;61000;48.120;11.548;2023-05-14T13:16:30;15.80;99.90
72865;DHT22;61000;48.120;11.548;2023-05-14T13:18:57;15.90;99.90
72865;DHT22;61000;48.120;11.548;2023-05-14T13:21:23;15.70;99.90
72865;DHT22;61000;48.120;11.548;2023-05-14T13:23:50;16.00;99.90
72865;DHT22;61000;48.120;11.548;2023-05-14T13:26:19;15.80;99.90
72865;DHT22;61000;48.120;11.548;2023-05-14T13:28:46;16.10;99.90
72865;DHT22;61000;48.120;11.548;2023-05-14T13:31:13;16.00;99.90
72865;DHT22;61000;48.120;11.548;2023-05-14T13:33:41;16.00;99.90
72865;DHT22;61000;48.120;11.548;2023-05-14T13:36:09;16.20;99.90
72865;DHT22;61000;48.120;11.548;2023-05-14T13:38:36;16.30;99.90
72865;DHT22;61000;48.120;11.548;2023-05-14T13:41:04;16.00;99.90
72865;DHT22;61000;48.120;11.548;2023-05-14T13:43:33;16.50;99.90
72865;DHT22;61000;48.120;11.548;2023-05-14T13:46:01;16.80;99.90
72865;DHT22;61000;48.120;11.548;2023-05-14T13:48:28;16.60;99.90
72865;DHT22;61000;48.120;11.548;2023-05-14T13:50:55;16.60;99.90
72865;DHT22;61000;48.120;11.548;2023-05-14T13:53:23;16.70;99.90
72865;DHT22;61000;48.120;11.548;2023-05-14T13:55:51;16.70;99.90
72865;DHT22;61000;48.120;11.548;2023-05-14T13:58:25;16.70;99.90
72865;DHT22;61000;48.120;11.548;2023-05-14T14:00:54;16.70;99.90
72865;DHT22;61000;48.120;11.548;2023-05-14T14:03:23;16.60;99.90
72865;DHT22;61000;48.120;11.548;2023-05-14T14:05:50;16.80;99.90
72865;DHT22;61000;48.120;11.548;2023-05-14T14:08:23;16.90;99.90
72865;DHT22;61000;48.120;11.548;2023-05-14T14:11:04;16.70;99.90
72865;DHT22;61000;48.120;11.548;2023-05-14T14:13:38;16.60;99.90
72865;DHT22;61000;48.120;11.548;2023-05-14T14:16:07;16.40;99.90
72865;DHT22;61000;48.120;11.548;2023-05-14T14:18:35;16.40;99.90
72865;DHT22;61000;48.120;11.548;2023-05-14T14:21:02;16.30;99.90
72865;DHT22;61000;48.120;11.548;2023-05-14T14:23:29;16.50;99.90
72865;DHT22;61000;48.120;11.548;2023-05-14T14:25:56;16.80;99.90
72865;DHT22;61000;48.120;11.548;2023-05-14T14:28:23;17.00;99.80
72865;DHT22;61000;48.120;11.548;2023-05-14T14:30:50;17.10;99.80
72865;DHT22;61000;48.120;11.548;2023-05-14T14:33:18;17.40;99.90
72865;DHT22;61000;48.120;11.548;2023-05-14T14:35:45;17.60;98.60
72865;DHT22;61000;48.120;11.548;2023-05-14T14:38:12;17.30;98.30
72865;DHT22;61000;48.120;11.548;2023-05-14T14:40:39;17.30;98.60
72865;DHT22;61000;48.120;11.548;2023-05-14T14:43:06;17.10;98.50
72865;DHT22;61000;48.120;11.548;2023-05-14T14:45:33;17.10;98.80
72865;DHT22;61000;48.120;11.548;2023-05-14T14:48:24;17.30;97.80
72865;DHT22;61000;48.120;11.548;2023-05-14T14:50:51;17.40;97.20
72865;DHT22;61000;48.120;11.548;2023-05-14T14:53:18;17.60;97.00
72865;DHT22;61000;48.120;11.548;2023-05-14T14:55:46;17.60;97.30
72865;DHT22;61000;48.120;11.548;2023-05-14T14:58:13;17.40;97.20
72865;DHT22;61000;48.120;11.548;2023-05-14T15:00:40;17.10;97.40
72865;DHT22;61000;48.120;11.548;2023-05-14T15:03:07;17.20;97.50
72865;DHT22;61000;48.120;11.548;2023-05-14T15:05:35;17.30;97.70
72865;DHT22;61000;48.120;11.548;2023-05-14T15:08:06;17.20;97.80
72865;DHT22;61000;48.120;11.548;2023-05-14T15:10:33;17.10;98.00
72865;DHT22;61000;48.120;11.548;2023-05-14T15:13:06;17.10;98.10
72865;DHT22;61000;48.120;11.548;2023-05-14T15:15:34;17.00;98.10
72865;DHT22;61000;48.120;11.548;2023-05-14T15:18:19;17.00;98.10
72865;DHT22;61000;48.120;11.548;2023-05-14T15:20:57;16.90;98.10
72865;DHT22;61000;48.120;11.548;2023-05-14T15:23:40;17.10;97.70